sensor_id;sensor_type;location;lat;lon;timestamp;temperature;humidity
68764;DHT22;55754;52.038;5.566;2022-12-10T00:01:10;1.10;94.30
68764;DHT22;55754;52.038;5.566;2022-12-10T00:03:36;1.10;94.30
68764;DHT22;55754;52.038;5.566;2022-12-10T00:06:04;1.10;94.30
68764;DHT22;55754;52.038;5.566;2022-12-10T00:08:30;1.10;94.40
68764;DHT22;55754;52.038;5.566;2022-12-10T00:10:55;1.00;94.40
68764;DHT22;55754;52.038;5.566;2022-12-10T00:13:21;1.00;94.30
68764;DHT22;55754;52.038;5.566;2022-12-10T00:15:47;1.00;94.40
68764;DHT22;55754;52.038;5.566;2022-12-10T00:18:12;1.00;94.30
68764;DHT22;55754;52.038;5.566;2022-12-10T00:20:38;1.00;94.40
68764;DHT22;55754;52.038;5.566;2022-12-10T00:23:04;0.90;94.50
68764;DHT22;55754;52.038;5.566;2022-12-10T00:25:31;0.90;94.60
68764;DHT22;55754;52.038;5.566;2022-12-10T00:27:57;0.90;94.50
68764;DHT22;55754;52.038;5.566;2022-12-10T00:30:23;0.90;94.70
68764;DHT22;55754;52.038;5.566;2022-12-10T00:32:48;0.90;94.60
68764;DHT22;55754;52.038;5.566;2022-12-10T00:35:14;0.90;94.50
68764;DHT22;55754;52.038;5.566;2022-12-10T00:37:45;0.80;94.60
68764;DHT22;55754;52.038;5.566;2022-12-10T00:40:11;0.90;94.60
68764;DHT22;55754;52.038;5.566;2022-12-10T00:42:37;0.80;94.50
68764;DHT22;55754;52.038;5.566;2022-12-10T00:45:04;0.80;94.50
68764;DHT22;55754;52.038;5.566;2022-12-10T00:47:29;0.80;94.60
68764;DHT22;55754;52.038;5.566;2022-12-10T00:49:55;0.80;94.90
68764;DHT22;55754;52.038;5.566;2022-12-10T00:52:23;0.80;94.50
68764;DHT22;55754;52.038;5.566;2022-12-10T00:54:52;0.90;94.40
68764;DHT22;55754;52.038;5.566;2022-12-10T00:57:17;0.80;94.40
68764;DHT22;55754;52.038;5.566;2022-12-10T00:59:43;0.80;94.40
68764;DHT22;55754;52.038;5.566;2022-12-10T01:02:08;0.80;94.40
68764;DHT22;55754;52.038;5.566;2022-12-10T01:04:34;0.80;94.40
68764;DHT22;55754;52.038;5.566;2022-12-10T01:06:59;0.80;94.40
68764;DHT22;55754;52.038;5.566;2022-12-10T01:09:29;0.70;94.60
68764;DHT22;55754;52.038;5.566;2022-12-10T01:11:57;0.70;94.60
68764;DHT22;55754;52.038;5.566;2022-12-10T01:14:29;0.80;94.50
68764;DHT22;55754;52.038;5.566;2022-12-10T01:16:58;0.70;94.50
68764;DHT22;55754;52.038;5.566;2022-12-10T01:19:24;0.80;94.50
68764;DHT22;55754;52.038;5.566;2022-12-10T01:21:53;0.80;94.70
68764;DHT22;55754;52.038;5.566;2022-12-10T01:24:21;0.70;94.60
68764;DHT22;55754;52.038;5.566;2022-12-10T01:26:46;0.70;94.60
68764;DHT22;55754;52.038;5.566;2022-12-10T01:29:12;0.70;94.60
68764;DHT22;55754;52.038;5.566;2022-12-10T01:31:38;0.70;95.10
68764;DHT22;55754;52.038;5.566;2022-12-10T01:34:05;0.70;94.70
68764;DHT22;55754;52.038;5.566;2022-12-10T01:36:38;0.70;94.70
68764;DHT22;55754;52.038;5.566;2022-12-10T01:39:06;0.70;94.70
68764;DHT22;55754;52.038;5.566;2022-12-10T01:41:35;0.60;94.70
68764;DHT22;55754;52.038;5.566;2022-12-10T01:44:05;0.60;94.80
68764;DHT22;55754;52.038;5.566;2022-12-10T01:46:51;0.60;94.90
68764;DHT22;55754;52.038;5.566;2022-12-10T01:49:32;0.60;94.90
68764;DHT22;55754;52.038;5.566;2022-12-10T01:51:58;0.60;95.50
68764;DHT22;55754;52.038;5.566;2022-12-10T01:54:27;0.50;95.10
68764;DHT22;55754;52.038;5.566;2022-12-10T01:57:08;0.50;95.10
68764;DHT22;55754;52.038;5.566;2022-12-10T01:59:36;-0.20;94.80
68764;DHT22;55754;52.038;5.566;2022-12-10T02:02:22;0.50;95.00
68764;DHT22;55754;52.038;5.566;2022-12-10T02:13:04;0.50;95.40
68764;DHT22;55754;52.038;5.566;2022-12-10T02:15:35;0.40;95.40
68764;DHT22;55754;52.038;5.566;2022-12-10T02:20:31;0.50;95.40
68764;DHT22;55754;52.038;5.566;2022-12-10T02:23:08;0.40;95.50
68764;DHT22;55754;52.038;5.566;2022-12-10T02:31:15;0.40;95.70
68764;DHT22;55754;52.038;5.566;2022-12-10T02:33:46;0.40;95.70
68764;DHT22;55754;52.038;5.566;2022-12-10T02:36:14;0.50;95.70
68764;DHT22;55754;52.038;5.566;2022-12-10T02:38:41;0.60;95.50
68764;DHT22;55754;52.038;5.566;2022-12-10T02:41:43;0.60;95.50
68764;DHT22;55754;52.038;5.566;2022-12-10T02:44:13;0.60;95.70
68764;DHT22;55754;52.038;5.566;2022-12-10T02:46:41;0.50;95.70
68764;DHT22;55754;52.038;5.566;2022-12-10T02:49:08;0.50;95.70
68764;DHT22;55754;52.038;5.566;2022-12-10T02:51:37;0.50;95.80
68764;DHT22;55754;52.038;5.566;2022-12-10T02:54:05;0.60;95.80
68764;DHT22;55754;52.038;5.566;2022-12-10T02:56:45;0.60;95.80
68764;DHT22;55754;52.038;5.566;2022-12-10T02:59:17;0.60;95.90
68764;DHT22;55754;52.038;5.566;2022-12-10T03:02:11;0.50;96.00
68764;DHT22;55754;52.038;5.566;2022-12-10T03:05:00;0.60;96.00
68764;DHT22;55754;52.038;5.566;2022-12-10T03:13:14;0.50;96.00
68764;DHT22;55754;52.038;5.566;2022-12-10T03:15:42;0.50;96.10
68764;DHT22;55754;52.038;5.566;2022-12-10T03:18:09;0.50;96.10
68764;DHT22;55754;52.038;5.566;2022-12-10T03:20:42;0.60;96.00
68764;DHT22;55754;52.038;5.566;2022-12-10T03:23:12;0.50;96.20
68764;DHT22;55754;52.038;5.566;2022-12-10T03:25:39;0.50;96.50
68764;DHT22;55754;52.038;5.566;2022-12-10T03:28:07;0.50;96.60
68764;DHT22;55754;52.038;5.566;2022-12-10T03:30:33;0.50;96.60
68764;DHT22;55754;52.038;5.566;2022-12-10T03:33:00;0.50;96.60
68764;DHT22;55754;52.038;5.566;2022-12-10T03:35:27;0.50;96.70
68764;DHT22;55754;52.038;5.566;2022-12-10T03:37:53;0.50;96.80
68764;DHT22;55754;52.038;5.566;2022-12-10T03:40:21;0.50;96.80
68764;DHT22;55754;52.038;5.566;2022-12-10T03:42:48;0.50;96.90
68764;DHT22;55754;52.038;5.566;2022-12-10T03:45:13;0.50;96.90
68764;DHT22;55754;52.038;5.566;2022-12-10T03:47:40;0.50;97.10
68764;DHT22;55754;52.038;5.566;2022-12-10T03:50:06;0.50;97.00
68764;DHT22;55754;52.038;5.566;2022-12-10T03:52:32;0.50;96.80
68764;DHT22;55754;52.038;5.566;2022-12-10T03:54:57;0.50;97.00
68764;DHT22;55754;52.038;5.566;2022-12-10T03:57:23;0.50;97.20
68764;DHT22;55754;52.038;5.566;2022-12-10T03:59:48;0.50;97.20
68764;DHT22;55754;52.038;5.566;2022-12-10T04:02:17;0.50;97.40
68764;DHT22;55754;52.038;5.566;2022-12-10T04:04:42;0.50;97.30
68764;DHT22;55754;52.038;5.566;2022-12-10T04:07:08;0.40;97.30
68764;DHT22;55754;52.038;5.566;2022-12-10T04:09:34;0.40;97.30
68764;DHT22;55754;52.038;5.566;2022-12-10T04:12:00;0.40;97.50
68764;DHT22;55754;52.038;5.566;2022-12-10T04:14:26;0.40;97.40
68764;DHT22;55754;52.038;5.566;2022-12-10T04:17:11;0.40;97.30
68764;DHT22;55754;52.038;5.566;2022-12-10T04:19:37;0.40;97.30
68764;DHT22;55754;52.038;5.566;2022-12-10T04:22:03;0.40;97.30
68764;DHT22;55754;52.038;5.566;2022-12-10T04:24:47;0.50;97.50
68764;DHT22;55754;52.038;5.566;2022-12-10T04:27:36;0.50;97.50
68764;DHT22;55754;52.038;5.566;2022-12-10T04:30:04;0.50;97.70
68764;DHT22;55754;52.038;5.566;2022-12-10T04:32:30;0.50;97.60
68764;DHT22;55754;52.038;5.566;2022-12-10T04:34:56;0.50;97.30
68764;DHT22;55754;52.038;5.566;2022-12-10T04:37:22;0.40;97.30
68764;DHT22;55754;52.038;5.566;2022-12-10T04:39:49;0.40;97.50
68764;DHT22;55754;52.038;5.566;2022-12-10T04:42:15;0.30;97.60
68764;DHT22;55754;52.038;5.566;2022-12-10T04:44:41;0.30;97.60
68764;DHT22;55754;52.038;5.566;2022-12-10T04:47:08;0.30;97.80
68764;DHT22;55754;52.038;5.566;2022-12-10T04:49:34;0.30;97.70
68764;DHT22;55754;52.038;5.566;2022-12-10T04:52:00;0.40;97.80
68764;DHT22;55754;52.038;5.566;2022-12-10T04:54:26;0.80;97.80
68764;DHT22;55754;52.038;5.566;2022-12-10T04:56:52;0.40;97.70
68764;DHT22;55754;52.038;5.566;2022-12-10T04:59:18;0.40;97.60
68764;DHT22;55754;52.038;5.566;2022-12-10T05:01:47;0.40;97.70
68764;DHT22;55754;52.038;5.566;2022-12-10T05:04:15;0.40;97.50
68764;DHT22;55754;52.038;5.566;2022-12-10T05:06:41;0.50;97.50
68764;DHT22;55754;52.038;5.566;2022-12-10T05:09:07;0.40;97.50
68764;DHT22;55754;52.038;5.566;2022-12-10T05:11:34;-0.60;97.60
68764;DHT22;55754;52.038;5.566;2022-12-10T05:14:00;0.40;97.70
68764;DHT22;55754;52.038;5.566;2022-12-10T05:16:28;0.40;98.20
68764;DHT22;55754;52.038;5.566;2022-12-10T05:18:54;0.40;97.70
68764;DHT22;55754;52.038;5.566;2022-12-10T05:21:21;0.40;97.70
68764;DHT22;55754;52.038;5.566;2022-12-10T05:23:50;0.40;97.70
68764;DHT22;55754;52.038;5.566;2022-12-10T05:28:45;0.50;97.60
68764;DHT22;55754;52.038;5.566;2022-12-10T05:31:20;0.40;97.80
68764;DHT22;55754;52.038;5.566;2022-12-10T05:33:46;0.40;97.90
68764;DHT22;55754;52.038;5.566;2022-12-10T05:36:14;0.40;97.90
68764;DHT22;55754;52.038;5.566;2022-12-10T05:38:42;0.50;97.80
68764;DHT22;55754;52.038;5.566;2022-12-10T05:41:14;0.40;97.90
68764;DHT22;55754;52.038;5.566;2022-12-10T05:43:41;0.50;97.80
68764;DHT22;55754;52.038;5.566;2022-12-10T05:46:13;0.40;97.70
68764;DHT22;55754;52.038;5.566;2022-12-10T05:48:39;0.40;97.80
68764;DHT22;55754;52.038;5.566;2022-12-10T05:51:11;0.50;97.70
68764;DHT22;55754;52.038;5.566;2022-12-10T05:53:37;0.50;97.70
68764;DHT22;55754;52.038;5.566;2022-12-10T05:56:14;0.50;97.70
68764;DHT22;55754;52.038;5.566;2022-12-10T05:58:42;0.50;97.70
68764;DHT22;55754;52.038;5.566;2022-12-10T06:01:10;0.50;97.60
68764;DHT22;55754;52.038;5.566;2022-12-10T06:03:37;0.40;97.90
68764;DHT22;55754;52.038;5.566;2022-12-10T06:06:03;0.40;98.00
68764;DHT22;55754;52.038;5.566;2022-12-10T06:08:32;0.40;98.10
68764;DHT22;55754;52.038;5.566;2022-12-10T06:11:02;0.40;98.20
68764;DHT22;55754;52.038;5.566;2022-12-10T06:13:28;0.50;98.10
68764;DHT22;55754;52.038;5.566;2022-12-10T06:15:54;0.50;98.10
68764;DHT22;55754;52.038;5.566;2022-12-10T06:18:20;0.50;98.00
68764;DHT22;55754;52.038;5.566;2022-12-10T06:20:46;0.50;98.00
68764;DHT22;55754;52.038;5.566;2022-12-10T06:23:12;0.50;98.10
68764;DHT22;55754;52.038;5.566;2022-12-10T06:25:40;0.50;97.90
68764;DHT22;55754;52.038;5.566;2022-12-10T06:28:07;0.50;97.80
68764;DHT22;55754;52.038;5.566;2022-12-10T06:30:33;1.70;97.90
68764;DHT22;55754;52.038;5.566;2022-12-10T06:32:59;0.60;97.50
68764;DHT22;55754;52.038;5.566;2022-12-10T06:35:25;0.60;97.40
68764;DHT22;55754;52.038;5.566;2022-12-10T06:37:51;0.60;97.50
68764;DHT22;55754;52.038;5.566;2022-12-10T06:40:17;0.50;97.90
68764;DHT22;55754;52.038;5.566;2022-12-10T06:42:42;0.50;97.90
68764;DHT22;55754;52.038;5.566;2022-12-10T06:45:08;0.50;98.00
68764;DHT22;55754;52.038;5.566;2022-12-10T06:47:34;0.50;98.00
68764;DHT22;55754;52.038;5.566;2022-12-10T06:49:59;0.50;98.20
68764;DHT22;55754;52.038;5.566;2022-12-10T06:52:25;0.70;98.10
68764;DHT22;55754;52.038;5.566;2022-12-10T06:54:54;0.50;98.00
68764;DHT22;55754;52.038;5.566;2022-12-10T06:57:20;0.50;97.90
68764;DHT22;55754;52.038;5.566;2022-12-10T06:59:46;0.60;97.80
68764;DHT22;55754;52.038;5.566;2022-12-10T07:02:12;0.50;97.90
68764;DHT22;55754;52.038;5.566;2022-12-10T07:04:37;0.60;97.90
68764;DHT22;55754;52.038;5.566;2022-12-10T07:07:05;0.50;97.80
68764;DHT22;55754;52.038;5.566;2022-12-10T07:09:30;0.50;97.80
68764;DHT22;55754;52.038;5.566;2022-12-10T07:11:57;0.50;97.90
68764;DHT22;55754;52.038;5.566;2022-12-10T07:14:22;0.40;97.90
68764;DHT22;55754;52.038;5.566;2022-12-10T07:16:51;0.50;97.80
68764;DHT22;55754;52.038;5.566;2022-12-10T07:19:17;0.50;97.80
68764;DHT22;55754;52.038;5.566;2022-12-10T07:21:43;0.60;97.70
68764;DHT22;55754;52.038;5.566;2022-12-10T07:24:16;0.50;97.60
68764;DHT22;55754;52.038;5.566;2022-12-10T07:26:44;0.50;97.70
68764;DHT22;55754;52.038;5.566;2022-12-10T07:29:16;0.50;97.60
68764;DHT22;55754;52.038;5.566;2022-12-10T07:31:42;0.50;97.50
68764;DHT22;55754;52.038;5.566;2022-12-10T07:34:08;0.50;97.50
68764;DHT22;55754;52.038;5.566;2022-12-10T07:36:34;0.50;97.30
68764;DHT22;55754;52.038;5.566;2022-12-10T07:39:00;0.50;97.80
68764;DHT22;55754;52.038;5.566;2022-12-10T07:41:26;0.50;97.50
68764;DHT22;55754;52.038;5.566;2022-12-10T07:43:51;0.50;97.60
68764;DHT22;55754;52.038;5.566;2022-12-10T07:46:23;0.50;97.50
68764;DHT22;55754;52.038;5.566;2022-12-10T07:48:49;0.40;97.70
68764;DHT22;55754;52.038;5.566;2022-12-10T07:51:17;0.40;97.80
68764;DHT22;55754;52.038;5.566;2022-12-10T07:53:43;0.40;97.80
68764;DHT22;55754;52.038;5.566;2022-12-10T07:56:09;0.40;97.90
68764;DHT22;55754;52.038;5.566;2022-12-10T07:58:36;0.40;97.80
68764;DHT22;55754;52.038;5.566;2022-12-10T08:01:13;0.40;97.90
68764;DHT22;55754;52.038;5.566;2022-12-10T08:03:39;0.40;97.70
68764;DHT22;55754;52.038;5.566;2022-12-10T08:06:06;0.50;97.60
68764;DHT22;55754;52.038;5.566;2022-12-10T08:08:34;0.40;97.50
68764;DHT22;55754;52.038;5.566;2022-12-10T08:11:00;0.50;97.50
68764;DHT22;55754;52.038;5.566;2022-12-10T08:13:27;0.50;97.50
68764;DHT22;55754;52.038;5.566;2022-12-10T08:15:53;0.50;97.50
68764;DHT22;55754;52.038;5.566;2022-12-10T08:18:19;0.50;97.50
68764;DHT22;55754;52.038;5.566;2022-12-10T08:20:45;0.50;97.50
68764;DHT22;55754;52.038;5.566;2022-12-10T08:23:10;0.50;97.40
68764;DHT22;55754;52.038;5.566;2022-12-10T08:25:36;0.50;97.70
68764;DHT22;55754;52.038;5.566;2022-12-10T08:28:02;0.40;97.70
68764;DHT22;55754;52.038;5.566;2022-12-10T08:30:29;0.50;97.90
68764;DHT22;55754;52.038;5.566;2022-12-10T08:32:55;0.50;97.70
68764;DHT22;55754;52.038;5.566;2022-12-10T08:35:20;0.50;97.70
68764;DHT22;55754;52.038;5.566;2022-12-10T08:37:46;0.60;97.80
68764;DHT22;55754;52.038;5.566;2022-12-10T08:40:12;0.50;97.70
68764;DHT22;55754;52.038;5.566;2022-12-10T08:42:37;0.50;97.80
68764;DHT22;55754;52.038;5.566;2022-12-10T08:45:04;0.50;97.60
68764;DHT22;55754;52.038;5.566;2022-12-10T08:47:30;0.60;97.60
68764;DHT22;55754;52.038;5.566;2022-12-10T08:49:55;0.60;97.40
68764;DHT22;55754;52.038;5.566;2022-12-10T08:52:21;0.60;97.30
68764;DHT22;55754;52.038;5.566;2022-12-10T08:54:46;0.60;97.50
68764;DHT22;55754;52.038;5.566;2022-12-10T08:57:12;0.60;97.60
68764;DHT22;55754;52.038;5.566;2022-12-10T08:59:37;0.60;97.40
68764;DHT22;55754;52.038;5.566;2022-12-10T09:02:03;0.70;97.50
68764;DHT22;55754;52.038;5.566;2022-12-10T09:04:28;0.70;97.60
68764;DHT22;55754;52.038;5.566;2022-12-10T09:06:54;0.70;97.50
68764;DHT22;55754;52.038;5.566;2022-12-10T09:09:20;0.60;97.40
68764;DHT22;55754;52.038;5.566;2022-12-10T09:11:45;0.60;98.10
68764;DHT22;55754;52.038;5.566;2022-12-10T09:14:12;0.60;97.80
68764;DHT22;55754;52.038;5.566;2022-12-10T09:16:38;0.60;97.70
68764;DHT22;55754;52.038;5.566;2022-12-10T09:19:07;0.70;97.60
68764;DHT22;55754;52.038;5.566;2022-12-10T09:21:34;0.60;97.60
68764;DHT22;55754;52.038;5.566;2022-12-10T09:24:00;0.60;97.60
68764;DHT22;55754;52.038;5.566;2022-12-10T09:26:26;0.60;97.70
68764;DHT22;55754;52.038;5.566;2022-12-10T09:28:54;0.70;97.70
68764;DHT22;55754;52.038;5.566;2022-12-10T09:31:20;0.60;97.70
68764;DHT22;55754;52.038;5.566;2022-12-10T09:33:48;0.70;97.80
68764;DHT22;55754;52.038;5.566;2022-12-10T09:36:14;0.70;97.70
68764;DHT22;55754;52.038;5.566;2022-12-10T09:38:42;0.70;97.60
68764;DHT22;55754;52.038;5.566;2022-12-10T09:44:27;0.70;97.60
68764;DHT22;55754;52.038;5.566;2022-12-10T09:46:56;0.70;97.60
68764;DHT22;55754;52.038;5.566;2022-12-10T09:52:06;0.70;97.50
68764;DHT22;55754;52.038;5.566;2022-12-10T09:54:56;0.70;97.70
68764;DHT22;55754;52.038;5.566;2022-12-10T09:57:37;0.70;97.50
68764;DHT22;55754;52.038;5.566;2022-12-10T10:00:23;0.70;97.40
68764;DHT22;55754;52.038;5.566;2022-12-10T10:02:51;0.70;97.50
68764;DHT22;55754;52.038;5.566;2022-12-10T10:05:23;0.70;97.50
68764;DHT22;55754;52.038;5.566;2022-12-10T10:07:53;0.70;97.40
68764;DHT22;55754;52.038;5.566;2022-12-10T10:10:24;0.70;97.50
68764;DHT22;55754;52.038;5.566;2022-12-10T10:15:51;0.70;97.70
68764;DHT22;55754;52.038;5.566;2022-12-10T10:18:33;0.70;97.60
68764;DHT22;55754;52.038;5.566;2022-12-10T10:21:00;0.70;97.50
68764;DHT22;55754;52.038;5.566;2022-12-10T10:23:26;0.70;97.40
68764;DHT22;55754;52.038;5.566;2022-12-10T10:25:51;0.70;97.10
68764;DHT22;55754;52.038;5.566;2022-12-10T10:28:22;0.80;97.40
68764;DHT22;55754;52.038;5.566;2022-12-10T10:30:48;0.80;97.30
68764;DHT22;55754;52.038;5.566;2022-12-10T10:33:16;0.80;97.20
68764;DHT22;55754;52.038;5.566;2022-12-10T10:35:44;0.80;97.40
68764;DHT22;55754;52.038;5.566;2022-12-10T10:38:27;0.80;97.10
68764;DHT22;55754;52.038;5.566;2022-12-10T10:40:56;0.80;97.20
68764;DHT22;55754;52.038;5.566;2022-12-10T10:43:33;0.70;97.30
68764;DHT22;55754;52.038;5.566;2022-12-10T10:46:17;0.70;97.40
68764;DHT22;55754;52.038;5.566;2022-12-10T10:48:43;0.70;97.60
68764;DHT22;55754;52.038;5.566;2022-12-10T10:53:46;0.70;97.60
68764;DHT22;55754;52.038;5.566;2022-12-10T10:56:23;1.80;97.70
68764;DHT22;55754;52.038;5.566;2022-12-10T10:58:52;0.80;97.20
68764;DHT22;55754;52.038;5.566;2022-12-10T11:01:18;0.70;97.10
68764;DHT22;55754;52.038;5.566;2022-12-10T11:03:48;0.80;97.10
68764;DHT22;55754;52.038;5.566;2022-12-10T11:06:15;0.80;97.20
68764;DHT22;55754;52.038;5.566;2022-12-10T11:08:43;0.80;97.00
68764;DHT22;55754;52.038;5.566;2022-12-10T11:11:19;0.80;97.00
68764;DHT22;55754;52.038;5.566;2022-12-10T11:13:46;0.80;96.80
68764;DHT22;55754;52.038;5.566;2022-12-10T11:18:42;0.70;97.00
68764;DHT22;55754;52.038;5.566;2022-12-10T11:21:19;0.70;96.90
68764;DHT22;55754;52.038;5.566;2022-12-10T11:23:52;0.60;97.20
68764;DHT22;55754;52.038;5.566;2022-12-10T11:29:04;0.70;97.40
68764;DHT22;55754;52.038;5.566;2022-12-10T11:37:33;0.80;97.20
68764;DHT22;55754;52.038;5.566;2022-12-10T11:40:24;0.80;97.30
68764;DHT22;55754;52.038;5.566;2022-12-10T11:45:48;0.90;97.10
68764;DHT22;55754;52.038;5.566;2022-12-10T11:51:47;0.80;96.90
68764;DHT22;55754;52.038;5.566;2022-12-10T12:07:55;0.80;97.30
68764;DHT22;55754;52.038;5.566;2022-12-10T12:13:16;0.80;97.20
68764;DHT22;55754;52.038;5.566;2022-12-10T12:19:01;0.90;97.50
68764;DHT22;55754;52.038;5.566;2022-12-10T12:21:28;0.90;97.30
68764;DHT22;55754;52.038;5.566;2022-12-10T12:35:19;1.80;99.90
68764;DHT22;55754;52.038;5.566;2022-12-10T12:40:30;1.20;97.50
68764;DHT22;55754;52.038;5.566;2022-12-10T12:43:01;1.30;97.40
68764;DHT22;55754;52.038;5.566;2022-12-10T12:45:47;1.20;97.30
68764;DHT22;55754;52.038;5.566;2022-12-10T12:48:31;1.10;97.10
68764;DHT22;55754;52.038;5.566;2022-12-10T12:51:03;1.00;97.40
68764;DHT22;55754;52.038;5.566;2022-12-10T12:53:30;1.00;97.60
68764;DHT22;55754;52.038;5.566;2022-12-10T13:04:17;1.10;97.70
68764;DHT22;55754;52.038;5.566;2022-12-10T13:09:52;1.10;97.70
68764;DHT22;55754;52.038;5.566;2022-12-10T13:12:48;1.10;97.70
68764;DHT22;55754;52.038;5.566;2022-12-10T13:18:22;1.10;97.50
68764;DHT22;55754;52.038;5.566;2022-12-10T13:23:46;1.00;98.20
68764;DHT22;55754;52.038;5.566;2022-12-10T13:26:25;1.00;97.90
68764;DHT22;55754;52.038;5.566;2022-12-10T13:28:53;1.00;98.10
68764;DHT22;55754;52.038;5.566;2022-12-10T13:31:33;1.00;98.10
68764;DHT22;55754;52.038;5.566;2022-12-10T13:39:38;1.10;98.10
68764;DHT22;55754;52.038;5.566;2022-12-10T13:50:45;1.10;97.80
68764;DHT22;55754;52.038;5.566;2022-12-10T14:06:44;1.10;97.90
68764;DHT22;55754;52.038;5.566;2022-12-10T14:09:21;1.00;98.00
68764;DHT22;55754;52.038;5.566;2022-12-10T14:12:07;1.10;98.10
68764;DHT22;55754;52.038;5.566;2022-12-10T14:14:40;1.10;98.00
68764;DHT22;55754;52.038;5.566;2022-12-10T14:17:19;1.20;98.00
68764;DHT22;55754;52.038;5.566;2022-12-10T14:19:55;1.10;97.90
68764;DHT22;55754;52.038;5.566;2022-12-10T14:22:39;1.10;98.10
68764;DHT22;55754;52.038;5.566;2022-12-10T14:25:14;1.10;98.20
68764;DHT22;55754;52.038;5.566;2022-12-10T14:27:40;1.10;98.70
68764;DHT22;55754;52.038;5.566;2022-12-10T14:30:16;1.10;98.20
68764;DHT22;55754;52.038;5.566;2022-12-10T14:32:42;1.20;98.30
68764;DHT22;55754;52.038;5.566;2022-12-10T14:35:28;1.10;98.30
68764;DHT22;55754;52.038;5.566;2022-12-10T14:37:56;1.10;98.30
68764;DHT22;55754;52.038;5.566;2022-12-10T14:40:26;1.10;98.30
68764;DHT22;55754;52.038;5.566;2022-12-10T14:42:59;1.10;98.50
68764;DHT22;55754;52.038;5.566;2022-12-10T14:45:35;1.20;98.40
68764;DHT22;55754;52.038;5.566;2022-12-10T14:48:03;1.10;98.10
68764;DHT22;55754;52.038;5.566;2022-12-10T14:50:32;1.10;98.20
68764;DHT22;55754;52.038;5.566;2022-12-10T14:53:00;1.10;98.20
68764;DHT22;55754;52.038;5.566;2022-12-10T14:55:26;1.10;98.30
68764;DHT22;55754;52.038;5.566;2022-12-10T14:57:58;1.00;98.40
68764;DHT22;55754;52.038;5.566;2022-12-10T15:00:28;1.00;98.50
68764;DHT22;55754;52.038;5.566;2022-12-10T15:02:58;1.00;98.60
68764;DHT22;55754;52.038;5.566;2022-12-10T15:05:28;0.80;98.60
68764;DHT22;55754;52.038;5.566;2022-12-10T15:08:07;1.00;98.50
68764;DHT22;55754;52.038;5.566;2022-12-10T15:10:40;1.10;98.60
68764;DHT22;55754;52.038;5.566;2022-12-10T15:13:08;1.00;98.80
68764;DHT22;55754;52.038;5.566;2022-12-10T15:15:42;1.00;98.70
68764;DHT22;55754;52.038;5.566;2022-12-10T15:23:31;1.10;98.80
68764;DHT22;55754;52.038;5.566;2022-12-10T15:28:28;1.10;98.80
68764;DHT22;55754;52.038;5.566;2022-12-10T15:34:02;1.10;99.00
68764;DHT22;55754;52.038;5.566;2022-12-10T15:44:34;1.10;98.90
68764;DHT22;55754;52.038;5.566;2022-12-10T15:49:41;1.10;98.80
68764;DHT22;55754;52.038;5.566;2022-12-10T15:52:15;1.20;98.90
68764;DHT22;55754;52.038;5.566;2022-12-10T15:54:43;1.20;98.80
68764;DHT22;55754;52.038;5.566;2022-12-10T15:57:18;1.20;98.70
68764;DHT22;55754;52.038;5.566;2022-12-10T15:59:45;1.30;98.80
68764;DHT22;55754;52.038;5.566;2022-12-10T16:02:58;1.30;98.70
68764;DHT22;55754;52.038;5.566;2022-12-10T16:08:26;1.30;98.70
68764;DHT22;55754;52.038;5.566;2022-12-10T16:11:01;1.30;98.80
68764;DHT22;55754;52.038;5.566;2022-12-10T16:13:51;1.30;98.70
68764;DHT22;55754;52.038;5.566;2022-12-10T16:16:17;1.30;98.80
68764;DHT22;55754;52.038;5.566;2022-12-10T16:18:46;1.30;98.90
68764;DHT22;55754;52.038;5.566;2022-12-10T16:21:12;1.30;98.90
68764;DHT22;55754;52.038;5.566;2022-12-10T16:23:38;1.40;98.80
68764;DHT22;55754;52.038;5.566;2022-12-10T16:26:19;1.40;98.80
68764;DHT22;55754;52.038;5.566;2022-12-10T16:28:45;1.40;98.80
68764;DHT22;55754;52.038;5.566;2022-12-10T16:31:14;1.40;98.80
68764;DHT22;55754;52.038;5.566;2022-12-10T16:33:40;1.40;99.00
68764;DHT22;55754;52.038;5.566;2022-12-10T16:36:06;1.40;98.90
68764;DHT22;55754;52.038;5.566;2022-12-10T16:38:32;1.30;99.00
68764;DHT22;55754;52.038;5.566;2022-12-10T16:40:59;1.40;99.00
68764;DHT22;55754;52.038;5.566;2022-12-10T16:43:26;1.40;99.10
68764;DHT22;55754;52.038;5.566;2022-12-10T16:45:53;1.40;98.90
68764;DHT22;55754;52.038;5.566;2022-12-10T16:48:19;1.40;98.90
68764;DHT22;55754;52.038;5.566;2022-12-10T16:50:46;1.40;98.90
68764;DHT22;55754;52.038;5.566;2022-12-10T16:55:40;1.40;99.10
68764;DHT22;55754;52.038;5.566;2022-12-10T16:58:09;1.40;99.30
68764;DHT22;55754;52.038;5.566;2022-12-10T17:00:35;1.40;98.80
68764;DHT22;55754;52.038;5.566;2022-12-10T17:03:01;1.50;98.80
68764;DHT22;55754;52.038;5.566;2022-12-10T17:05:36;1.40;98.90
68764;DHT22;55754;52.038;5.566;2022-12-10T17:08:04;1.50;98.80
68764;DHT22;55754;52.038;5.566;2022-12-10T17:10:29;1.50;98.70
68764;DHT22;55754;52.038;5.566;2022-12-10T17:13:15;1.50;98.80
68764;DHT22;55754;52.038;5.566;2022-12-10T17:15:42;1.50;98.80
68764;DHT22;55754;52.038;5.566;2022-12-10T17:18:14;1.50;98.80
68764;DHT22;55754;52.038;5.566;2022-12-10T17:20:39;1.50;98.70
68764;DHT22;55754;52.038;5.566;2022-12-10T17:23:05;1.50;99.00
68764;DHT22;55754;52.038;5.566;2022-12-10T17:25:31;1.50;99.10
68764;DHT22;55754;52.038;5.566;2022-12-10T17:27:57;1.40;99.00
68764;DHT22;55754;52.038;5.566;2022-12-10T17:30:23;1.40;99.10
68764;DHT22;55754;52.038;5.566;2022-12-10T17:32:48;1.40;99.00
68764;DHT22;55754;52.038;5.566;2022-12-10T17:35:14;1.40;99.20
68764;DHT22;55754;52.038;5.566;2022-12-10T17:37:40;1.40;99.00
68764;DHT22;55754;52.038;5.566;2022-12-10T17:40:16;1.40;99.10
68764;DHT22;55754;52.038;5.566;2022-12-10T17:42:42;1.40;99.10
68764;DHT22;55754;52.038;5.566;2022-12-10T17:45:11;1.40;99.30
68764;DHT22;55754;52.038;5.566;2022-12-10T17:47:37;1.40;99.20
68764;DHT22;55754;52.038;5.566;2022-12-10T17:50:03;1.40;99.10
68764;DHT22;55754;52.038;5.566;2022-12-10T17:52:35;1.50;99.10
68764;DHT22;55754;52.038;5.566;2022-12-10T17:55:01;1.40;99.10
68764;DHT22;55754;52.038;5.566;2022-12-10T17:57:26;1.50;99.00
68764;DHT22;55754;52.038;5.566;2022-12-10T17:59:53;1.50;99.00
68764;DHT22;55754;52.038;5.566;2022-12-10T18:02:18;1.50;99.00
68764;DHT22;55754;52.038;5.566;2022-12-10T18:04:44;1.50;99.00
68764;DHT22;55754;52.038;5.566;2022-12-10T18:07:15;1.50;99.00
68764;DHT22;55754;52.038;5.566;2022-12-10T18:09:41;1.50;99.00
68764;DHT22;55754;52.038;5.566;2022-12-10T18:12:08;1.50;98.90
68764;DHT22;55754;52.038;5.566;2022-12-10T18:14:34;1.50;98.90
68764;DHT22;55754;52.038;5.566;2022-12-10T18:16:59;1.60;99.00
68764;DHT22;55754;52.038;5.566;2022-12-10T18:19:25;1.60;98.90
68764;DHT22;55754;52.038;5.566;2022-12-10T18:21:51;1.60;98.90
68764;DHT22;55754;52.038;5.566;2022-12-10T18:24:16;1.60;98.90
68764;DHT22;55754;52.038;5.566;2022-12-10T18:26:42;1.60;98.80
68764;DHT22;55754;52.038;5.566;2022-12-10T18:29:10;1.60;99.00
68764;DHT22;55754;52.038;5.566;2022-12-10T18:31:40;1.60;99.00
68764;DHT22;55754;52.038;5.566;2022-12-10T18:34:08;1.60;99.10
68764;DHT22;55754;52.038;5.566;2022-12-10T18:36:36;1.60;99.20